Overview Statistics Trail Chart Weather Telemetry Raw packets
 

This is the latest recevied weather packets stored in our database for station/object IU7URP-17. If no packets are shown the sender has not sent any weather packets the latest 10 day(s).

<< 17 18 19 20 21 22 23 >>
Time Temp. Humidity Pressure Rain* Wind** Luminosity Snow
1788035322 27.22° C 74% 1016.1 hPa - - - -
1788034118 27.78° C 60% 1016.1 hPa - - - -
1788032914 28.89° C 51% 1016.1 hPa - - - -
1788030509 28.89° C 54% 1015.9 hPa - - - -
1788029295 29.44° C 52% 1015.7 hPa - - - -
1788028091 29.44° C 51% 1015.4 hPa - - - -
1788026887 29.44° C 56% 1015.3 hPa - - - -
1788025682 30° C 56% 1015 hPa - - - -
1788019661 33.89° C 34% 1015 hPa - - - -
1788018457 34.44° C 33% 1015.1 hPa - - - -
1788017253 35.56° C 32% 1015 hPa - - - -
1788016048 36.11° C 31% 1015.1 hPa - - - -
1788014844 36.67° C 31% 1015 hPa - - - -
1788013639 37.78° C 29% 1014.9 hPa - - - -
1788012446 37.78° C 30% 1014.9 hPa - - - -
1788011230 38.33° C 32% 1014.7 hPa - - - -
1788008822 38.33° C 32% 1015 hPa - - - -
1788006414 38.33° C 28% 1015.2 hPa - - - -
1788005210 38.33° C 26% 1015.4 hPa - - - -
1788004006 40° C 22% 1015.2 hPa - - - -
1788002538 41.11° C 21% 1014.8 hPa - - - -
1788001334 41.11° C 22% 1014.8 hPa - - - -
1788000130 40.56° C 23% 1015.1 hPa - - - -
1787998926 39.44° C 24% 1015.2 hPa - - - -
1787997722 38.33° C 24% 1015.3 hPa - - - -

* Rain since midnight (hover to see other rain measurements)
** Current wind speed in m/s (hover to see current wind gust speed)